sensor_id;sensor_type;location;lat;lon;timestamp;P1;durP1;ratioP1;P2;durP2;ratioP2
83485;SDS011;73423;45.118;20.726;2024-02-15T00:03:02;97.57;;;37.57;;
83485;SDS011;73423;45.118;20.726;2024-02-15T00:13:07;88.50;;;35.15;;
83485;SDS011;73423;45.118;20.726;2024-02-15T00:23:08;80.73;;;33.90;;
83485;SDS011;73423;45.118;20.726;2024-02-15T00:33:09;82.47;;;35.97;;
83485;SDS011;73423;45.118;20.726;2024-02-15T00:43:11;92.82;;;36.58;;
83485;SDS011;73423;45.118;20.726;2024-02-15T00:53:12;98.07;;;38.33;;
83485;SDS011;73423;45.118;20.726;2024-02-15T01:03:14;80.17;;;34.97;;
83485;SDS011;73423;45.118;20.726;2024-02-15T01:13:16;81.37;;;35.00;;
83485;SDS011;73423;45.118;20.726;2024-02-15T01:23:17;60.92;;;25.38;;
83485;SDS011;73423;45.118;20.726;2024-02-15T01:33:18;40.17;;;16.80;;
83485;SDS011;73423;45.118;20.726;2024-02-15T01:43:20;41.93;;;19.97;;
83485;SDS011;73423;45.118;20.726;2024-02-15T01:53:21;46.80;;;21.15;;
83485;SDS011;73423;45.118;20.726;2024-02-15T02:03:22;44.23;;;20.00;;
83485;SDS011;73423;45.118;20.726;2024-02-15T02:13:23;42.30;;;20.57;;
83485;SDS011;73423;45.118;20.726;2024-02-15T02:23:25;43.92;;;19.95;;
83485;SDS011;73423;45.118;20.726;2024-02-15T02:33:27;53.20;;;26.10;;
83485;SDS011;73423;45.118;20.726;2024-02-15T02:43:29;46.37;;;22.73;;
83485;SDS011;73423;45.118;20.726;2024-02-15T02:53:30;37.77;;;19.37;;
83485;SDS011;73423;45.118;20.726;2024-02-15T03:03:32;41.72;;;19.15;;
83485;SDS011;73423;45.118;20.726;2024-02-15T03:13:33;47.17;;;20.90;;
83485;SDS011;73423;45.118;20.726;2024-02-15T03:23:34;42.40;;;19.67;;
83485;SDS011;73423;45.118;20.726;2024-02-15T03:33:35;43.15;;;20.95;;
83485;SDS011;73423;45.118;20.726;2024-02-15T03:43:37;39.10;;;19.80;;
83485;SDS011;73423;45.118;20.726;2024-02-15T03:53:39;43.83;;;20.17;;
83485;SDS011;73423;45.118;20.726;2024-02-15T04:03:40;41.55;;;19.77;;
83485;SDS011;73423;45.118;20.726;2024-02-15T04:13:42;45.13;;;23.73;;
83485;SDS011;73423;45.118;20.726;2024-02-15T04:23:43;48.80;;;22.93;;
83485;SDS011;73423;45.118;20.726;2024-02-15T04:33:45;45.60;;;21.90;;
83485;SDS011;73423;45.118;20.726;2024-02-15T04:43:50;45.80;;;21.10;;
83485;SDS011;73423;45.118;20.726;2024-02-15T04:53:51;44.17;;;20.63;;
83485;SDS011;73423;45.118;20.726;2024-02-15T05:03:52;45.63;;;21.83;;
83485;SDS011;73423;45.118;20.726;2024-02-15T05:13:56;45.90;;;21.77;;
83485;SDS011;73423;45.118;20.726;2024-02-15T05:23:58;49.43;;;22.83;;
83485;SDS011;73423;45.118;20.726;2024-02-15T05:34:00;112.60;;;38.73;;
83485;SDS011;73423;45.118;20.726;2024-02-15T05:44:01;89.57;;;31.65;;
83485;SDS011;73423;45.118;20.726;2024-02-15T05:54:05;89.30;;;34.45;;
83485;SDS011;73423;45.118;20.726;2024-02-15T06:04:06;101.27;;;35.10;;
83485;SDS011;73423;45.118;20.726;2024-02-15T06:14:09;94.23;;;37.67;;
83485;SDS011;73423;45.118;20.726;2024-02-15T06:24:10;102.35;;;38.58;;
83485;SDS011;73423;45.118;20.726;2024-02-15T06:34:11;116.40;;;41.53;;
83485;SDS011;73423;45.118;20.726;2024-02-15T06:44:31;104.63;;;41.63;;
83485;SDS011;73423;45.118;20.726;2024-02-15T06:54:33;111.15;;;44.13;;
83485;SDS011;73423;45.118;20.726;2024-02-15T07:04:36;60.73;;;28.37;;
83485;SDS011;73423;45.118;20.726;2024-02-15T07:14:37;53.50;;;26.27;;
83485;SDS011;73423;45.118;20.726;2024-02-15T07:24:38;52.60;;;27.55;;
83485;SDS011;73423;45.118;20.726;2024-02-15T07:34:40;59.83;;;27.65;;
83485;SDS011;73423;45.118;20.726;2024-02-15T07:44:42;59.40;;;28.07;;
83485;SDS011;73423;45.118;20.726;2024-02-15T07:54:44;52.07;;;27.30;;
83485;SDS011;73423;45.118;20.726;2024-02-15T08:04:45;58.45;;;27.10;;
83485;SDS011;73423;45.118;20.726;2024-02-15T08:14:46;39.63;;;22.37;;
83485;SDS011;73423;45.118;20.726;2024-02-15T08:24:47;45.60;;;23.27;;
83485;SDS011;73423;45.118;20.726;2024-02-15T08:34:49;45.80;;;22.63;;
83485;SDS011;73423;45.118;20.726;2024-02-15T08:44:51;34.93;;;17.73;;
83485;SDS011;73423;45.118;20.726;2024-02-15T08:54:52;37.17;;;19.87;;
83485;SDS011;73423;45.118;20.726;2024-02-15T09:04:53;29.15;;;16.15;;
83485;SDS011;73423;45.118;20.726;2024-02-15T09:14:54;34.20;;;19.40;;
83485;SDS011;73423;45.118;20.726;2024-02-15T09:24:56;32.47;;;18.13;;
83485;SDS011;73423;45.118;20.726;2024-02-15T09:34:57;32.50;;;17.20;;
83485;SDS011;73423;45.118;20.726;2024-02-15T09:44:58;27.48;;;16.33;;
83485;SDS011;73423;45.118;20.726;2024-02-15T09:55:00;19.57;;;12.87;;
83485;SDS011;73423;45.118;20.726;2024-02-15T10:05:03;22.23;;;11.40;;
83485;SDS011;73423;45.118;20.726;2024-02-15T10:15:05;21.30;;;10.90;;
83485;SDS011;73423;45.118;20.726;2024-02-15T10:25:14;17.67;;;10.80;;
83485;SDS011;73423;45.118;20.726;2024-02-15T10:35:19;17.33;;;10.47;;
83485;SDS011;73423;45.118;20.726;2024-02-15T10:45:21;17.77;;;11.20;;
83485;SDS011;73423;45.118;20.726;2024-02-15T11:05:42;16.33;;;10.82;;
83485;SDS011;73423;45.118;20.726;2024-02-15T11:15:44;17.73;;;11.40;;
83485;SDS011;73423;45.118;20.726;2024-02-15T11:25:47;12.03;;;8.43;;
83485;SDS011;73423;45.118;20.726;2024-02-15T11:46:12;14.17;;;9.60;;
83485;SDS011;73423;45.118;20.726;2024-02-15T11:56:14;14.73;;;8.68;;
83485;SDS011;73423;45.118;20.726;2024-02-15T12:06:19;12.87;;;8.03;;
83485;SDS011;73423;45.118;20.726;2024-02-15T12:16:39;12.00;;;8.63;;
83485;SDS011;73423;45.118;20.726;2024-02-15T12:26:59;10.80;;;7.80;;
83485;SDS011;73423;45.118;20.726;2024-02-15T12:37:07;9.23;;;7.20;;
83485;SDS011;73423;45.118;20.726;2024-02-15T12:47:21;11.25;;;8.02;;
83485;SDS011;73423;45.118;20.726;2024-02-15T12:57:25;10.93;;;6.13;;
83485;SDS011;73423;45.118;20.726;2024-02-15T13:07:26;11.87;;;6.63;;
83485;SDS011;73423;45.118;20.726;2024-02-15T13:17:29;8.57;;;5.90;;
83485;SDS011;73423;45.118;20.726;2024-02-15T13:27:30;9.07;;;6.27;;
83485;SDS011;73423;45.118;20.726;2024-02-15T13:37:31;17.50;;;10.68;;
83485;SDS011;73423;45.118;20.726;2024-02-15T13:47:32;13.00;;;7.63;;
83485;SDS011;73423;45.118;20.726;2024-02-15T13:57:34;13.17;;;8.10;;
83485;SDS011;73423;45.118;20.726;2024-02-15T14:07:35;13.80;;;8.52;;
83485;SDS011;73423;45.118;20.726;2024-02-15T14:17:36;10.30;;;6.77;;
83485;SDS011;73423;45.118;20.726;2024-02-15T14:27:37;10.32;;;6.68;;
83485;SDS011;73423;45.118;20.726;2024-02-15T14:37:40;13.40;;;8.90;;
83485;SDS011;73423;45.118;20.726;2024-02-15T14:47:41;18.33;;;10.07;;
83485;SDS011;73423;45.118;20.726;2024-02-15T14:57:43;14.32;;;8.10;;
83485;SDS011;73423;45.118;20.726;2024-02-15T15:07:44;40.60;;;20.40;;
83485;SDS011;73423;45.118;20.726;2024-02-15T15:18:11;20.02;;;10.77;;
83485;SDS011;73423;45.118;20.726;2024-02-15T15:28:12;70.43;;;25.37;;
83485;SDS011;73423;45.118;20.726;2024-02-15T15:38:14;26.13;;;13.80;;
83485;SDS011;73423;45.118;20.726;2024-02-15T15:48:16;56.22;;;29.98;;
83485;SDS011;73423;45.118;20.726;2024-02-15T15:58:17;66.13;;;36.37;;
83485;SDS011;73423;45.118;20.726;2024-02-15T16:08:21;109.20;;;45.87;;
83485;SDS011;73423;45.118;20.726;2024-02-15T16:18:22;83.38;;;35.83;;
83485;SDS011;73423;45.118;20.726;2024-02-15T16:28:24;71.83;;;33.37;;
83485;SDS011;73423;45.118;20.726;2024-02-15T16:38:25;54.27;;;25.20;;
83485;SDS011;73423;45.118;20.726;2024-02-15T16:48:27;77.75;;;34.58;;
83485;SDS011;73423;45.118;20.726;2024-02-15T16:58:30;63.53;;;29.10;;
83485;SDS011;73423;45.118;20.726;2024-02-15T17:08:32;67.63;;;28.07;;
83485;SDS011;73423;45.118;20.726;2024-02-15T17:18:33;69.53;;;28.25;;
83485;SDS011;73423;45.118;20.726;2024-02-15T17:28:34;63.70;;;28.35;;
83485;SDS011;73423;45.118;20.726;2024-02-15T17:38:39;74.33;;;33.23;;
83485;SDS011;73423;45.118;20.726;2024-02-15T17:48:40;103.40;;;42.27;;
83485;SDS011;73423;45.118;20.726;2024-02-15T17:58:42;132.75;;;54.33;;
83485;SDS011;73423;45.118;20.726;2024-02-15T18:08:45;147.43;;;58.93;;
83485;SDS011;73423;45.118;20.726;2024-02-15T18:18:46;135.83;;;55.83;;
83485;SDS011;73423;45.118;20.726;2024-02-15T18:28:48;138.23;;;57.75;;
83485;SDS011;73423;45.118;20.726;2024-02-15T18:38:49;127.33;;;50.17;;
83485;SDS011;73423;45.118;20.726;2024-02-15T18:48:51;135.20;;;51.00;;
83485;SDS011;73423;45.118;20.726;2024-02-15T18:58:52;178.00;;;61.00;;
83485;SDS011;73423;45.118;20.726;2024-02-15T19:08:53;134.30;;;46.45;;
83485;SDS011;73423;45.118;20.726;2024-02-15T19:18:55;124.83;;;43.67;;
83485;SDS011;73423;45.118;20.726;2024-02-15T19:29:00;105.63;;;41.43;;
83485;SDS011;73423;45.118;20.726;2024-02-15T19:39:05;100.78;;;39.10;;
83485;SDS011;73423;45.118;20.726;2024-02-15T19:49:11;107.10;;;40.93;;
83485;SDS011;73423;45.118;20.726;2024-02-15T19:59:12;86.80;;;34.90;;
83485;SDS011;73423;45.118;20.726;2024-02-15T20:09:13;88.82;;;36.78;;
83485;SDS011;73423;45.118;20.726;2024-02-15T20:19:18;86.57;;;35.23;;
83485;SDS011;73423;45.118;20.726;2024-02-15T20:29:19;82.57;;;34.73;;
83485;SDS011;73423;45.118;20.726;2024-02-15T20:39:21;78.75;;;34.83;;
83485;SDS011;73423;45.118;20.726;2024-02-15T20:49:22;94.25;;;36.53;;
83485;SDS011;73423;45.118;20.726;2024-02-15T20:59:26;118.37;;;42.20;;
83485;SDS011;73423;45.118;20.726;2024-02-15T21:09:27;99.47;;;39.43;;
83485;SDS011;73423;45.118;20.726;2024-02-15T21:19:28;92.88;;;35.33;;
83485;SDS011;73423;45.118;20.726;2024-02-15T21:29:30;108.40;;;38.23;;
83485;SDS011;73423;45.118;20.726;2024-02-15T21:39:31;104.37;;;37.97;;
83485;SDS011;73423;45.118;20.726;2024-02-15T21:49:35;100.20;;;37.35;;
83485;SDS011;73423;45.118;20.726;2024-02-15T21:59:36;120.70;;;40.87;;
83485;SDS011;73423;45.118;20.726;2024-02-15T22:09:37;123.00;;;44.37;;
83485;SDS011;73423;45.118;20.726;2024-02-15T22:19:39;167.18;;;64.28;;
83485;SDS011;73423;45.118;20.726;2024-02-15T22:29:40;180.90;;;67.93;;
83485;SDS011;73423;45.118;20.726;2024-02-15T22:39:41;115.87;;;41.20;;
83485;SDS011;73423;45.118;20.726;2024-02-15T22:49:42;95.67;;;34.00;;
83485;SDS011;73423;45.118;20.726;2024-02-15T22:59:44;102.25;;;36.72;;
83485;SDS011;73423;45.118;20.726;2024-02-15T23:09:45;101.47;;;33.43;;
83485;SDS011;73423;45.118;20.726;2024-02-15T23:19:46;81.63;;;31.33;;
83485;SDS011;73423;45.118;20.726;2024-02-15T23:29:47;98.32;;;36.00;;
83485;SDS011;73423;45.118;20.726;2024-02-15T23:39:49;109.40;;;40.97;;
83485;SDS011;73423;45.118;20.726;2024-02-15T23:50:08;105.03;;;39.47;;
